createdAt,value
2019-06-01T00:00:42.183Z,14.33
2019-06-01T00:01:42.420Z,14.29
2019-06-01T00:02:44.144Z,14.27
2019-06-01T00:03:42.211Z,14.28
2019-06-01T00:04:41.280Z,14.17
2019-06-01T00:05:42.495Z,14.15
2019-06-01T00:06:42.699Z,14.18
2019-06-01T00:07:41.420Z,14.18
2019-06-01T00:08:41.523Z,14.15
2019-06-01T00:09:41.491Z,14.10
2019-06-01T00:10:41.537Z,14.15
2019-06-01T00:11:41.578Z,14.07
2019-06-01T00:12:41.620Z,14.06
2019-06-01T00:13:41.662Z,14.09
2019-06-01T00:14:41.752Z,14.04
2019-06-01T00:15:41.966Z,14.09
2019-06-01T00:16:42.008Z,13.96
2019-06-01T00:17:41.940Z,13.89
2019-06-01T00:18:41.876Z,13.97
2019-06-01T00:19:42.045Z,13.95
2019-06-01T00:20:42.237Z,13.82
2019-06-01T00:21:43.174Z,13.92
2019-06-01T00:22:43.060Z,13.87
2019-06-01T00:23:42.490Z,13.84
2019-06-01T00:24:42.139Z,13.81
2019-06-01T00:25:42.624Z,13.84
2019-06-01T00:26:43.622Z,13.71
2019-06-01T00:27:42.531Z,13.73
2019-06-01T00:28:43.672Z,13.64
2019-06-01T00:29:42.731Z,13.71
2019-06-01T00:30:42.386Z,13.64
2019-06-01T00:31:43.041Z,13.63
2019-06-01T00:32:43.006Z,13.62
2019-06-01T00:33:43.351Z,13.60
2019-06-01T00:34:43.592Z,13.55
2019-06-01T00:35:43.513Z,13.62
2019-06-01T00:36:43.518Z,13.54
2019-06-01T00:37:43.437Z,13.62
2019-06-01T00:38:43.895Z,13.54
2019-06-01T00:39:43.704Z,13.57
2019-06-01T00:40:43.784Z,13.57
2019-06-01T00:41:43.939Z,13.55
2019-06-01T00:42:44.013Z,13.54
2019-06-01T00:43:44.135Z,13.64
2019-06-01T00:44:44.219Z,13.55
2019-06-01T00:45:44.382Z,13.54
2019-06-01T00:46:43.066Z,13.46
2019-06-01T00:47:43.111Z,13.48
2019-06-01T00:48:43.760Z,13.48
2019-06-01T00:49:43.193Z,13.39
2019-06-01T00:50:43.238Z,13.45
2019-06-01T00:51:43.285Z,13.42
2019-06-01T00:52:43.321Z,13.38
2019-06-01T00:53:43.416Z,13.41
2019-06-01T00:54:43.407Z,13.39
2019-06-01T00:55:43.450Z,13.41
2019-06-01T00:56:43.541Z,13.30
2019-06-01T00:57:43.538Z,13.32
2019-06-01T00:58:43.710Z,13.22
2019-06-01T00:59:43.737Z,13.25
2019-06-01T01:00:45.655Z,13.25
2019-06-01T01:01:43.909Z,13.22
2019-06-01T01:02:43.983Z,13.26
2019-06-01T01:03:44.007Z,13.23
2019-06-01T01:04:44.274Z,13.11
2019-06-01T01:05:44.599Z,13.14
2019-06-01T01:06:44.465Z,13.10
2019-06-01T01:07:44.513Z,13.15
2019-06-01T01:08:44.827Z,13.17
2019-06-01T01:09:44.818Z,13.11
2019-06-01T01:10:44.800Z,13.17
2019-06-01T01:11:44.897Z,13.11
2019-06-01T01:12:44.993Z,13.22
2019-06-01T01:13:45.706Z,13.14
2019-06-01T01:14:45.154Z,13.14
2019-06-01T01:15:45.231Z,13.08
2019-06-01T01:16:45.493Z,13.12
2019-06-01T01:17:45.686Z,13.14
2019-06-01T01:18:45.535Z,13.00
2019-06-01T01:19:45.563Z,13.08
2019-06-01T01:20:45.745Z,13.11
2019-06-01T01:21:45.883Z,13.11
2019-06-01T01:22:44.591Z,13.10
2019-06-01T01:23:44.638Z,13.10
2019-06-01T01:24:44.676Z,13.08
2019-06-01T01:25:44.737Z,13.10
2019-06-01T01:26:44.757Z,13.19
2019-06-01T01:27:44.802Z,13.07
2019-06-01T01:28:44.848Z,13.10
2019-06-01T01:29:44.885Z,13.12
2019-06-01T01:31:01.701Z,13.01
2019-06-01T01:31:44.969Z,13.12
2019-06-01T01:32:45.011Z,13.04
2019-06-01T01:33:45.052Z,13.03
2019-06-01T01:34:45.093Z,13.05
2019-06-01T01:35:45.136Z,12.95
2019-06-01T01:36:45.191Z,13.03
2019-06-01T01:37:45.220Z,13.03
2019-06-01T01:38:45.268Z,13.03
2019-06-01T01:39:45.307Z,13.03
2019-06-01T01:40:45.348Z,12.97
2019-06-01T01:41:45.389Z,13.01
2019-06-01T01:42:45.430Z,13.04
2019-06-01T01:43:45.494Z,13.00
2019-06-01T01:44:45.517Z,13.01
2019-06-01T01:45:45.557Z,13.01
2019-06-01T01:46:45.600Z,13.08
2019-06-01T01:47:45.641Z,12.97
2019-06-01T01:48:45.682Z,13.01
2019-06-01T01:49:45.724Z,13.01
2019-06-01T01:50:45.767Z,12.95
2019-06-01T01:51:45.809Z,12.97
2019-06-01T01:52:45.853Z,13.00
2019-06-01T01:53:45.894Z,12.96
2019-06-01T01:54:45.937Z,13.04
2019-06-01T01:55:45.984Z,12.97
2019-06-01T01:56:46.018Z,12.97
2019-06-01T01:57:46.067Z,12.83
2019-06-01T01:58:46.101Z,12.90
2019-06-01T01:59:46.147Z,12.92
2019-06-01T02:00:46.187Z,12.83
2019-06-01T02:01:46.278Z,12.83
2019-06-01T02:02:46.274Z,12.82
2019-06-01T02:03:46.311Z,12.86
2019-06-01T02:04:46.353Z,12.85
2019-06-01T02:05:46.395Z,12.83
2019-06-01T02:06:46.437Z,12.85
2019-06-01T02:07:46.477Z,12.77
2019-06-01T02:08:46.519Z,12.82
2019-06-01T02:09:46.564Z,12.87
2019-06-01T02:10:46.613Z,12.87
2019-06-01T02:11:46.653Z,12.85
2019-06-01T02:12:46.688Z,12.85
2019-06-01T02:13:46.734Z,12.79
2019-06-01T02:14:46.770Z,12.77
2019-06-01T02:15:46.814Z,12.78
2019-06-01T02:16:46.855Z,12.68
2019-06-01T02:17:46.894Z,12.77
2019-06-01T02:18:46.944Z,12.74
2019-06-01T02:19:46.980Z,12.72
2019-06-01T02:20:47.021Z,12.57
2019-06-01T02:21:47.063Z,12.60
2019-06-01T02:22:47.106Z,12.56
2019-06-01T02:23:47.155Z,12.49
2019-06-01T02:24:47.188Z,12.54
2019-06-01T02:25:47.234Z,12.52
2019-06-01T02:26:47.279Z,12.47
2019-06-01T02:27:47.313Z,12.50
2019-06-01T02:28:47.364Z,12.50
2019-06-01T02:29:47.397Z,12.50
2019-06-01T02:30:47.437Z,12.45
2019-06-01T02:31:47.482Z,12.42
2019-06-01T02:32:47.521Z,12.38
2019-06-01T02:33:47.565Z,12.38
2019-06-01T02:34:47.607Z,12.38
2019-06-01T02:35:47.645Z,12.45
2019-06-01T02:36:47.690Z,12.41
2019-06-01T02:37:47.730Z,12.39
2019-06-01T02:38:47.771Z,12.38
2019-06-01T02:39:47.811Z,12.35
2019-06-01T02:40:47.867Z,12.41
2019-06-01T02:41:47.896Z,12.39
2019-06-01T02:42:47.938Z,12.39
2019-06-01T02:43:47.979Z,12.38
2019-06-01T02:44:48.028Z,12.47
2019-06-01T02:45:48.062Z,12.37
2019-06-01T02:46:48.109Z,12.41
2019-06-01T02:47:48.153Z,12.39
2019-06-01T02:48:48.189Z,12.34
2019-06-01T02:49:48.230Z,12.37
2019-06-01T02:50:48.279Z,12.27
2019-06-01T02:51:48.313Z,12.32
2019-06-01T02:52:48.367Z,12.29
2019-06-01T02:53:48.400Z,12.24
2019-06-01T02:54:48.438Z,12.24
2019-06-01T02:55:48.481Z,12.20
2019-06-01T02:56:48.529Z,12.23
2019-06-01T02:57:48.564Z,12.28
2019-06-01T02:58:48.603Z,12.24
2019-06-01T02:59:48.646Z,12.27
2019-06-01T03:00:48.700Z,12.31
2019-06-01T03:01:57.467Z,12.31
2019-06-01T03:02:48.770Z,12.23
2019-06-01T03:03:48.812Z,12.27
2019-06-01T03:04:48.855Z,12.21
2019-06-01T03:05:48.894Z,12.24
2019-06-01T03:06:48.935Z,12.16
2019-06-01T03:07:48.979Z,12.21
2019-06-01T03:08:49.023Z,12.16
2019-06-01T03:09:49.061Z,12.16
2019-06-01T03:10:49.101Z,12.19
2019-06-01T03:11:49.151Z,12.16
2019-06-01T03:12:49.186Z,12.13
2019-06-01T03:13:49.228Z,12.21
2019-06-01T03:14:49.273Z,12.28
2019-06-01T03:15:49.362Z,12.19
2019-06-01T03:16:49.359Z,12.17
2019-06-01T03:17:49.392Z,12.24
2019-06-01T03:18:49.436Z,12.27
2019-06-01T03:19:49.478Z,12.27
2019-06-01T03:20:49.519Z,12.28
2019-06-01T03:21:49.602Z,12.28
2019-06-01T03:22:49.602Z,12.31
2019-06-01T03:23:49.644Z,12.32
2019-06-01T03:24:49.690Z,12.27
2019-06-01T03:25:49.726Z,12.31
2019-06-01T03:26:49.769Z,12.35
2019-06-01T03:27:49.808Z,12.42
2019-06-01T03:28:49.854Z,12.42
2019-06-01T03:29:49.891Z,12.38
2019-06-01T03:30:49.934Z,12.39
2019-06-01T03:31:49.981Z,12.52
2019-06-01T03:32:50.020Z,12.47
2019-06-01T03:33:50.069Z,12.47
2019-06-01T03:34:50.110Z,12.50
2019-06-01T03:35:50.142Z,12.59
2019-06-01T03:36:50.183Z,12.60
2019-06-01T03:37:50.224Z,12.67
2019-06-01T03:38:50.265Z,12.77
2019-06-01T03:39:50.312Z,12.79
2019-06-01T03:40:50.351Z,12.85
2019-06-01T03:41:50.395Z,12.82
2019-06-01T03:42:50.432Z,12.87
2019-06-01T03:43:50.475Z,12.95
2019-06-01T03:44:50.518Z,12.97
2019-06-01T03:45:50.557Z,12.97
2019-06-01T03:46:50.598Z,13.00
2019-06-01T03:47:50.642Z,13.11
2019-06-01T03:48:50.690Z,13.07
2019-06-01T03:49:50.726Z,13.11
2019-06-01T03:50:50.767Z,13.11
2019-06-01T03:51:50.812Z,13.22
2019-06-01T03:52:50.850Z,13.22
2019-06-01T03:53:50.891Z,13.32
2019-06-01T03:54:50.934Z,13.32
2019-06-01T03:55:50.976Z,13.41
2019-06-01T03:56:51.019Z,13.39
2019-06-01T03:57:51.059Z,13.54
2019-06-01T03:58:51.101Z,13.60
2019-06-01T03:59:51.145Z,13.54
2019-06-01T04:00:51.185Z,13.59
2019-06-01T04:01:51.226Z,13.70
2019-06-01T04:02:51.269Z,13.69
2019-06-01T04:03:51.311Z,13.66
2019-06-01T04:04:51.361Z,13.66
2019-06-01T04:05:51.396Z,13.75
2019-06-01T04:06:51.438Z,13.67
2019-06-01T04:07:51.480Z,13.73
2019-06-01T04:08:51.523Z,13.70
2019-06-01T04:09:51.580Z,13.75
2019-06-01T04:10:51.609Z,13.85
2019-06-01T04:11:51.652Z,13.87
2019-06-01T04:12:51.698Z,13.91
2019-06-01T04:13:51.735Z,13.99
2019-06-01T04:14:51.776Z,14.02
2019-06-01T04:15:51.919Z,14.09
2019-06-01T04:16:51.862Z,14.15
2019-06-01T04:17:51.904Z,14.15
2019-06-01T04:18:51.946Z,14.18
2019-06-01T04:19:51.988Z,14.18
2019-06-01T04:20:52.030Z,14.25
2019-06-01T04:21:52.074Z,14.27
2019-06-01T04:22:52.116Z,14.28
2019-06-01T04:23:52.159Z,14.37
2019-06-01T04:24:52.202Z,14.42
2019-06-01T04:25:52.254Z,14.47
2019-06-01T04:26:52.285Z,14.37
2019-06-01T04:27:52.326Z,14.46
2019-06-01T04:28:52.371Z,14.52
2019-06-01T04:29:52.413Z,14.60
2019-06-01T04:30:52.460Z,14.68
2019-06-01T04:31:52.498Z,14.68
2019-06-01T04:32:52.548Z,14.62
2019-06-01T04:33:52.588Z,14.72
2019-06-01T04:34:52.631Z,14.86
2019-06-01T04:35:52.670Z,14.72
2019-06-01T04:36:52.713Z,14.84
2019-06-01T04:37:52.755Z,15.01
2019-06-01T04:38:52.808Z,14.92
2019-06-01T04:39:52.841Z,15.01
2019-06-01T04:40:52.887Z,15.07
2019-06-01T04:41:52.927Z,15.13
2019-06-01T04:42:52.971Z,15.09
2019-06-01T04:43:53.015Z,15.13
2019-06-01T04:44:53.060Z,15.21
2019-06-01T04:45:53.101Z,15.25
2019-06-01T04:46:53.160Z,15.21
2019-06-01T04:47:53.191Z,15.35
2019-06-01T04:48:53.231Z,15.36
2019-06-01T04:49:53.272Z,15.43
2019-06-01T04:50:53.319Z,15.50
2019-06-01T04:51:53.360Z,15.51
2019-06-01T04:52:53.409Z,15.60
2019-06-01T04:53:53.444Z,15.65
2019-06-01T04:54:53.489Z,15.69
2019-06-01T04:55:53.531Z,15.75
2019-06-01T04:56:53.576Z,15.74
2019-06-01T04:57:53.620Z,15.84
2019-06-01T04:58:53.663Z,15.83
2019-06-01T04:59:54.237Z,15.82
2019-06-01T05:00:53.750Z,15.84
2019-06-01T05:01:53.794Z,15.87
2019-06-01T05:03:04.915Z,15.96
2019-06-01T05:03:53.881Z,16.01
2019-06-01T05:04:53.924Z,15.97
2019-06-01T05:05:53.967Z,16.07
2019-06-01T05:06:54.012Z,16.17
2019-06-01T05:07:54.055Z,16.27
2019-06-01T05:08:54.098Z,16.39
2019-06-01T05:09:54.141Z,16.42
2019-06-01T05:10:54.185Z,16.30
2019-06-01T05:11:54.232Z,16.45
2019-06-01T05:12:54.274Z,16.43
2019-06-01T05:13:54.319Z,16.50
2019-06-01T05:14:54.364Z,16.49
2019-06-01T05:15:54.419Z,16.52
2019-06-01T05:16:54.451Z,16.49
2019-06-01T05:17:54.501Z,16.60
2019-06-01T05:18:54.548Z,16.53
2019-06-01T05:19:54.646Z,16.71
2019-06-01T05:20:54.627Z,16.82
2019-06-01T05:21:54.670Z,16.82
2019-06-01T05:22:54.726Z,16.81
2019-06-01T05:23:54.757Z,16.94
2019-06-01T05:24:54.802Z,17.11
2019-06-01T05:25:54.850Z,17.15
2019-06-01T05:26:54.890Z,17.11
2019-06-01T05:27:54.935Z,17.22
2019-06-01T05:28:54.981Z,17.23
2019-06-01T05:29:55.024Z,17.28
2019-06-01T05:30:55.079Z,17.25
2019-06-01T05:31:55.115Z,17.38
2019-06-01T05:32:55.160Z,17.33
2019-06-01T05:33:55.202Z,17.43
2019-06-01T05:34:55.248Z,17.43
2019-06-01T05:35:55.293Z,17.41
2019-06-01T05:36:55.338Z,17.41
2019-06-01T05:37:55.385Z,17.40
2019-06-01T05:38:55.426Z,17.48
2019-06-01T05:39:55.471Z,17.58
2019-06-01T05:40:55.516Z,17.58
2019-06-01T05:41:55.560Z,17.62
2019-06-01T05:42:55.605Z,17.68
2019-06-01T05:43:55.651Z,17.49
2019-06-01T05:44:55.695Z,17.62
2019-06-01T05:45:55.751Z,17.64
2019-06-01T05:46:55.788Z,17.52
2019-06-01T05:47:55.828Z,17.56
2019-06-01T05:48:55.882Z,17.55
2019-06-01T05:49:55.918Z,17.64
2019-06-01T05:50:55.963Z,17.58
2019-06-01T05:51:56.008Z,17.74
2019-06-01T05:52:56.053Z,17.74
2019-06-01T05:53:56.098Z,17.84
2019-06-01T05:54:56.145Z,17.89
2019-06-01T05:55:56.188Z,18.12
2019-06-01T05:56:56.232Z,18.18
2019-06-01T05:57:56.278Z,18.33
2019-06-01T05:58:56.369Z,18.20
2019-06-01T05:59:56.368Z,18.33
2019-06-01T06:00:56.421Z,18.51
2019-06-01T06:01:56.457Z,18.50
2019-06-01T06:02:56.505Z,18.45
2019-06-01T06:03:56.556Z,18.58
2019-06-01T06:04:56.596Z,18.55
2019-06-01T06:05:56.641Z,18.65
2019-06-01T06:06:56.700Z,18.75
2019-06-01T06:07:56.732Z,18.73
2019-06-01T06:08:56.777Z,18.87
2019-06-01T06:09:56.822Z,18.85
2019-06-01T06:10:56.868Z,18.91
2019-06-01T06:11:56.913Z,19.06
2019-06-01T06:12:56.960Z,19.14
2019-06-01T06:13:57.004Z,19.22
2019-06-01T06:14:57.050Z,19.26
2019-06-01T06:15:57.105Z,19.43
2019-06-01T06:16:57.141Z,19.51
2019-06-01T06:17:57.187Z,19.46
2019-06-01T06:18:57.242Z,19.55
2019-06-01T06:19:57.278Z,19.50
2019-06-01T06:20:57.326Z,19.71
2019-06-01T06:21:57.368Z,19.71
2019-06-01T06:22:57.414Z,19.84
2019-06-01T06:23:57.461Z,19.91
2019-06-01T06:24:57.510Z,19.99
2019-06-01T06:25:57.551Z,20.08
2019-06-01T06:26:57.601Z,20.06
2019-06-01T06:27:57.647Z,20.08
2019-06-01T06:28:57.701Z,20.01
2019-06-01T06:29:57.737Z,20.01
2019-06-01T06:30:57.781Z,19.99
2019-06-01T06:31:57.831Z,19.83
2019-06-01T06:32:57.879Z,19.84
2019-06-01T06:33:57.923Z,19.87
2019-06-01T06:34:57.970Z,19.77
2019-06-01T06:35:58.014Z,19.83
2019-06-01T06:36:58.066Z,19.76
2019-06-01T06:37:58.105Z,19.71
2019-06-01T06:38:58.152Z,19.63
2019-06-01T06:39:58.203Z,19.71
2019-06-01T06:40:58.246Z,19.71
2019-06-01T06:41:58.293Z,19.69
2019-06-01T06:42:58.334Z,19.58
2019-06-01T06:43:58.399Z,19.50
2019-06-01T06:44:58.432Z,19.58
2019-06-01T06:45:58.471Z,19.61
2019-06-01T06:46:58.517Z,19.69
2019-06-01T06:47:58.572Z,19.69
2019-06-01T06:48:58.610Z,19.71
2019-06-01T06:49:58.658Z,19.78
2019-06-01T06:50:58.703Z,19.92
2019-06-01T06:51:58.750Z,19.94
2019-06-01T06:52:58.797Z,20.01
2019-06-01T06:53:58.846Z,20.14
2019-06-01T06:54:58.891Z,20.26
2019-06-01T06:55:58.935Z,20.35
2019-06-01T06:56:58.988Z,20.42
2019-06-01T06:57:59.032Z,20.52
2019-06-01T06:58:59.085Z,20.61
2019-06-01T06:59:59.130Z,20.61
2019-06-01T07:00:59.175Z,20.66
2019-06-01T07:01:59.211Z,20.73
2019-06-01T07:02:59.256Z,20.66
2019-06-01T07:04:12.193Z,20.70
2019-06-01T07:04:59.359Z,20.72
2019-06-01T07:05:59.406Z,20.85
2019-06-01T07:06:59.441Z,20.85
2019-06-01T07:07:59.496Z,21.04
2019-06-01T07:08:59.538Z,21.12
2019-06-01T07:09:59.585Z,21.13
2019-06-01T07:10:59.636Z,21.09
2019-06-01T07:11:59.685Z,21.06
2019-06-01T07:12:59.731Z,20.98
2019-06-01T07:13:59.766Z,20.94
2019-06-01T07:14:59.876Z,20.94
2019-06-01T07:15:59.887Z,20.82
2019-06-01T07:16:59.916Z,20.77
2019-06-01T07:17:59.968Z,20.89
2019-06-01T07:19:00.002Z,20.87
2019-06-01T07:20:00.071Z,20.95
2019-06-01T07:21:00.109Z,20.99
2019-06-01T07:22:00.153Z,21.01
2019-06-01T07:23:00.204Z,21.12
2019-06-01T07:24:00.241Z,21.10
2019-06-01T07:25:00.283Z,21.07
2019-06-01T07:26:00.332Z,20.98
2019-06-01T07:27:00.391Z,20.82
2019-06-01T07:28:00.437Z,20.85
2019-06-01T07:29:00.469Z,20.98
2019-06-01T07:30:00.518Z,20.88
2019-06-01T07:31:00.567Z,20.89
2019-06-01T07:32:00.614Z,20.84
2019-06-01T07:33:00.652Z,20.80
2019-06-01T07:34:00.699Z,20.89
2019-06-01T07:35:01.472Z,20.89
2019-06-01T07:36:00.790Z,20.99
2019-06-01T07:37:00.838Z,21.03
2019-06-01T07:38:00.883Z,20.99
2019-06-01T07:39:00.930Z,20.97
2019-06-01T07:40:00.976Z,20.88
2019-06-01T07:41:01.022Z,20.92
2019-06-01T07:42:01.073Z,20.87
2019-06-01T07:43:01.117Z,20.95
2019-06-01T07:44:01.162Z,20.94
2019-06-01T07:45:01.221Z,20.94
2019-06-01T07:46:01.264Z,20.92
2019-06-01T07:47:01.300Z,20.99
2019-06-01T07:48:01.348Z,20.99
2019-06-01T07:49:01.394Z,21.01
2019-06-01T07:50:01.440Z,20.97
2019-06-01T07:51:01.490Z,20.98
2019-06-01T07:52:12.078Z,21.01
2019-06-01T07:53:01.580Z,21.01
2019-06-01T07:54:01.631Z,21.03
2019-06-01T07:55:01.674Z,20.97
2019-06-01T07:56:01.728Z,21.07
2019-06-01T07:57:01.766Z,21.10
2019-06-01T07:58:01.813Z,21.13
2019-06-01T07:59:01.862Z,21.17
2019-06-01T08:00:01.917Z,21.17
2019-06-01T08:01:01.958Z,21.19
2019-06-01T08:02:02.057Z,21.22
2019-06-01T08:03:02.043Z,21.29
2019-06-01T08:04:02.092Z,21.29
2019-06-01T08:05:02.148Z,21.38
2019-06-01T08:06:02.181Z,21.40
2019-06-01T08:07:02.242Z,21.42
2019-06-01T08:08:02.286Z,21.35
2019-06-01T08:09:02.328Z,21.49
2019-06-01T08:10:02.374Z,21.46
2019-06-01T08:11:02.423Z,21.54
2019-06-01T08:12:02.591Z,21.50
2019-06-01T08:13:02.530Z,21.49
2019-06-01T08:14:02.557Z,21.56
2019-06-01T08:15:02.620Z,21.56
2019-06-01T08:16:02.652Z,21.58
2019-06-01T08:17:02.758Z,21.61
2019-06-01T08:18:02.748Z,21.56
2019-06-01T08:19:02.792Z,21.59
2019-06-01T08:20:02.834Z,21.67
2019-06-01T08:21:02.888Z,21.64
2019-06-01T08:22:02.943Z,21.69
2019-06-01T08:23:02.972Z,21.69
2019-06-01T08:24:03.024Z,21.77
2019-06-01T08:25:03.076Z,21.75
2019-06-01T08:26:03.110Z,21.75
2019-06-01T08:27:03.156Z,21.83
2019-06-01T08:28:03.232Z,21.75
2019-06-01T08:29:03.250Z,21.80
2019-06-01T08:30:03.298Z,21.86
2019-06-01T08:31:03.343Z,21.96
2019-06-01T08:32:03.391Z,21.96
2019-06-01T08:33:03.439Z,22.12
2019-06-01T08:34:03.564Z,22.09
2019-06-01T08:35:09.228Z,22.18
2019-06-01T08:36:03.576Z,22.21
2019-06-01T08:37:03.624Z,22.17
2019-06-01T08:38:03.668Z,22.21
2019-06-01T08:39:03.716Z,22.20
2019-06-01T08:40:03.829Z,22.22
2019-06-01T08:41:03.806Z,22.22
2019-06-01T08:42:03.853Z,22.31
2019-06-01T08:43:03.903Z,22.36
2019-06-01T08:44:03.951Z,22.37
2019-06-01T08:45:03.997Z,22.46
2019-06-01T08:46:04.043Z,22.49
2019-06-01T08:47:04.090Z,22.52
2019-06-01T08:48:04.138Z,22.51
2019-06-01T08:49:04.181Z,22.46
2019-06-01T08:50:04.227Z,22.51
2019-06-01T08:51:04.274Z,22.58
2019-06-01T08:52:04.320Z,22.67
2019-06-01T08:53:04.474Z,22.72
2019-06-01T08:54:04.414Z,22.67
2019-06-01T08:55:04.459Z,22.75
2019-06-01T08:56:04.507Z,22.82
2019-06-01T08:57:04.554Z,22.88
2019-06-01T08:58:04.601Z,22.94
2019-06-01T08:59:04.650Z,22.95
2019-06-01T09:00:04.695Z,23.00
2019-06-01T09:01:04.856Z,22.98
2019-06-01T09:02:04.788Z,23.09
2019-06-01T09:03:04.836Z,23.17
2019-06-01T09:04:04.884Z,23.19
2019-06-01T09:05:04.928Z,23.15
2019-06-01T09:06:04.980Z,23.35
2019-06-01T09:07:05.080Z,23.33
2019-06-01T09:08:05.073Z,23.35
2019-06-01T09:09:05.118Z,23.42
2019-06-01T09:10:05.163Z,23.46
2019-06-01T09:11:05.211Z,23.53
2019-06-01T09:12:05.260Z,23.55
2019-06-01T09:13:05.344Z,23.65
2019-06-01T09:14:05.353Z,23.68
2019-06-01T09:15:05.398Z,23.70
2019-06-01T09:16:05.446Z,23.79
2019-06-01T09:17:05.500Z,23.94
2019-06-01T09:18:05.539Z,24.05
2019-06-01T09:19:05.587Z,24.18
2019-06-01T09:20:05.634Z,24.27
2019-06-01T09:21:05.694Z,24.45
2019-06-01T09:22:05.746Z,24.57
2019-06-01T09:23:05.933Z,24.61
2019-06-01T09:24:05.822Z,24.73
2019-06-01T09:25:05.894Z,24.81
2019-06-01T09:26:05.916Z,24.85
2019-06-01T09:27:05.971Z,25.00
2019-06-01T09:28:06.013Z,25.02
2019-06-01T09:29:06.060Z,25.21
2019-06-01T09:30:06.157Z,25.40
2019-06-01T09:31:06.159Z,25.46
2019-06-01T09:32:10.667Z,25.72
2019-06-01T09:33:06.249Z,25.97
2019-06-01T09:34:06.298Z,26.02
2019-06-01T09:35:06.352Z,26.13
2019-06-01T09:36:06.402Z,26.15
2019-06-01T09:37:06.444Z,26.17
2019-06-01T09:38:06.491Z,26.18
2019-06-01T09:39:06.537Z,26.23
2019-06-01T09:40:06.590Z,26.23
2019-06-01T09:41:06.633Z,26.28
2019-06-01T09:42:06.681Z,26.37
2019-06-01T09:43:06.729Z,26.50
2019-06-01T09:44:06.820Z,26.51
2019-06-01T09:45:06.832Z,26.65
2019-06-01T09:46:06.877Z,26.65
2019-06-01T09:47:06.920Z,26.77
2019-06-01T09:48:06.998Z,26.94
2019-06-01T09:49:07.021Z,27.04
2019-06-01T09:50:07.067Z,27.14
2019-06-01T09:51:07.119Z,27.21
2019-06-01T09:52:07.162Z,27.44
2019-06-01T09:53:07.227Z,27.60
2019-06-01T09:54:07.279Z,27.62
2019-06-01T09:55:07.328Z,27.65
2019-06-01T09:56:07.358Z,27.69
2019-06-01T09:57:07.413Z,27.78
2019-06-01T09:58:07.455Z,27.69
2019-06-01T09:59:07.505Z,27.59
2019-06-01T10:00:07.554Z,27.60
2019-06-01T10:01:07.602Z,27.34
2019-06-01T10:02:07.650Z,27.18
2019-06-01T10:03:07.765Z,27.17
2019-06-01T10:04:07.784Z,27.03
2019-06-01T10:05:07.798Z,26.95
2019-06-01T10:06:07.846Z,26.82
2019-06-01T10:07:07.896Z,26.75
2019-06-01T10:08:07.942Z,26.77
2019-06-01T10:09:07.991Z,26.72
2019-06-01T10:10:08.038Z,26.62
2019-06-01T10:11:08.087Z,26.65
2019-06-01T10:12:08.144Z,26.66
2019-06-01T10:13:08.293Z,26.65
2019-06-01T10:14:08.233Z,26.63
2019-06-01T10:15:08.282Z,26.62
2019-06-01T10:16:08.341Z,26.65
2019-06-01T10:17:08.381Z,26.65
2019-06-01T10:18:08.430Z,26.66
2019-06-01T10:19:08.479Z,26.60
2019-06-01T10:20:08.527Z,26.57
2019-06-01T10:21:08.593Z,26.63
2019-06-01T10:22:08.628Z,26.65
2019-06-01T10:23:08.676Z,26.66
2019-06-01T10:24:08.731Z,26.69
2019-06-01T10:25:08.771Z,26.81
2019-06-01T10:26:08.820Z,26.76
2019-06-01T10:27:08.877Z,26.70
2019-06-01T10:28:08.924Z,26.62
2019-06-01T10:29:08.967Z,26.62
2019-06-01T10:30:09.023Z,26.57
2019-06-01T10:31:09.064Z,26.55
2019-06-01T10:32:09.140Z,26.52
2019-06-01T10:33:09.162Z,26.65
2019-06-01T10:34:09.211Z,26.60
2019-06-01T10:35:09.257Z,26.65
2019-06-01T10:36:19.737Z,26.62
2019-06-01T10:37:09.356Z,26.62
2019-06-01T10:38:09.407Z,26.63
2019-06-01T10:39:09.453Z,26.55
2019-06-01T10:40:09.501Z,26.63
2019-06-01T10:41:09.557Z,26.60
2019-06-01T10:42:09.602Z,26.66
2019-06-01T10:43:09.660Z,26.75
2019-06-01T10:44:09.703Z,26.73
2019-06-01T10:45:09.753Z,26.81
2019-06-01T10:46:09.797Z,26.81
2019-06-01T10:47:09.846Z,26.81
2019-06-01T10:48:09.892Z,26.77
2019-06-01T10:49:09.939Z,26.77
2019-06-01T10:50:10.009Z,26.88
2019-06-01T10:51:10.036Z,26.92
2019-06-01T10:52:10.102Z,26.88
2019-06-01T10:53:10.133Z,27.00
2019-06-01T10:54:10.192Z,26.99
2019-06-01T10:55:10.233Z,27.02
2019-06-01T10:56:10.278Z,27.06
2019-06-01T10:57:10.329Z,27.12
2019-06-01T10:58:10.386Z,27.07
2019-06-01T10:59:10.432Z,27.02
2019-06-01T11:00:10.473Z,27.09
2019-06-01T11:01:10.525Z,27.21
2019-06-01T11:02:10.576Z,27.28
2019-06-01T11:03:10.621Z,27.28
2019-06-01T11:04:10.670Z,27.39
2019-06-01T11:05:10.719Z,27.39
2019-06-01T11:06:10.765Z,27.55
2019-06-01T11:07:10.815Z,27.55
2019-06-01T11:08:10.864Z,27.50
2019-06-01T11:09:10.924Z,27.69
2019-06-01T11:10:11.182Z,27.66
2019-06-01T11:11:11.025Z,27.75
2019-06-01T11:12:11.059Z,27.82
2019-06-01T11:13:11.335Z,27.82
2019-06-01T11:14:11.159Z,28.03
2019-06-01T11:15:11.218Z,27.99
2019-06-01T11:16:11.257Z,28.12
2019-06-01T11:17:11.321Z,28.14
2019-06-01T11:18:11.361Z,28.02
2019-06-01T11:19:11.404Z,28.04
2019-06-01T11:20:11.454Z,28.07
2019-06-01T11:21:11.500Z,28.00
2019-06-01T11:22:11.551Z,28.02
2019-06-01T11:23:11.599Z,28.12
2019-06-01T11:24:11.985Z,28.25
2019-06-01T11:25:11.697Z,28.36
2019-06-01T11:26:11.749Z,28.36
2019-06-01T11:27:11.796Z,28.39
2019-06-01T11:28:11.860Z,28.48
2019-06-01T11:29:11.904Z,28.40
2019-06-01T11:30:11.953Z,28.44
2019-06-01T11:31:12.002Z,28.44
2019-06-01T11:32:12.045Z,28.51
2019-06-01T11:33:12.096Z,28.54
2019-06-01T11:34:12.145Z,28.46
2019-06-01T11:35:12.191Z,28.52
2019-06-01T11:36:12.250Z,28.41
2019-06-01T11:37:15.425Z,28.51
2019-06-01T11:38:12.351Z,28.43
2019-06-01T11:39:12.391Z,28.52
2019-06-01T11:40:12.441Z,28.54
2019-06-01T11:41:12.499Z,28.61
2019-06-01T11:42:12.536Z,28.62
2019-06-01T11:43:12.597Z,28.73
2019-06-01T11:44:12.640Z,28.74
2019-06-01T11:45:12.698Z,28.73
2019-06-01T11:46:12.736Z,28.67
2019-06-01T11:47:12.794Z,28.70
2019-06-01T11:48:12.834Z,28.83
2019-06-01T11:49:12.884Z,28.92
2019-06-01T11:50:12.933Z,29.02
2019-06-01T11:51:12.992Z,29.11
2019-06-01T11:52:13.102Z,29.24
2019-06-01T11:53:13.084Z,29.31
2019-06-01T11:54:13.152Z,29.39
2019-06-01T11:55:13.190Z,29.28
2019-06-01T11:56:13.233Z,29.33
2019-06-01T11:57:13.293Z,29.21
2019-06-01T11:58:13.337Z,29.26
2019-06-01T11:59:13.382Z,29.21
2019-06-01T12:00:13.434Z,29.21
2019-06-01T12:01:13.487Z,29.19
2019-06-01T12:02:13.533Z,29.36
2019-06-01T12:03:13.752Z,29.31
2019-06-01T12:04:13.636Z,29.43
2019-06-01T12:05:13.687Z,29.34
2019-06-01T12:06:13.734Z,29.31
2019-06-01T12:07:17.836Z,29.37
2019-06-01T12:08:13.840Z,29.30
2019-06-01T12:09:13.891Z,29.36
2019-06-01T12:10:13.939Z,29.43
2019-06-01T12:11:13.983Z,29.42
2019-06-01T12:12:14.034Z,29.61
2019-06-01T12:13:14.083Z,29.65
2019-06-01T12:14:14.134Z,29.70
2019-06-01T12:15:14.216Z,29.82
2019-06-01T12:16:14.238Z,30.05
2019-06-01T12:17:14.286Z,30.16
2019-06-01T12:18:14.336Z,30.27
2019-06-01T12:19:14.387Z,30.45
2019-06-01T12:20:14.444Z,30.47
2019-06-01T12:21:14.491Z,30.67
2019-06-01T12:22:14.536Z,30.70
2019-06-01T12:23:14.600Z,30.91
2019-06-01T12:24:14.677Z,30.91
2019-06-01T12:25:14.688Z,30.89
2019-06-01T12:26:14.743Z,30.99
2019-06-01T12:27:14.799Z,31.12
2019-06-01T12:28:14.840Z,31.07
2019-06-01T12:29:14.921Z,31.01
2019-06-01T12:30:14.943Z,30.89
2019-06-01T12:31:15.000Z,30.83
2019-06-01T12:32:15.062Z,30.88
2019-06-01T12:33:15.094Z,30.88
2019-06-01T12:34:15.144Z,30.86
2019-06-01T12:35:15.198Z,30.86
2019-06-01T12:36:15.246Z,30.82
2019-06-01T12:37:15.298Z,30.89
2019-06-01T12:38:15.351Z,30.88
2019-06-01T12:39:15.409Z,30.80
2019-06-01T12:40:15.475Z,30.67
2019-06-01T12:41:15.504Z,30.64
2019-06-01T12:42:15.562Z,30.55
2019-06-01T12:43:15.610Z,30.46
2019-06-01T12:44:15.679Z,30.47
2019-06-01T12:45:15.712Z,30.47
2019-06-01T12:46:15.755Z,30.43
2019-06-01T12:47:15.816Z,30.39
2019-06-01T12:48:15.874Z,30.45
2019-06-01T12:49:15.912Z,30.38
2019-06-01T12:50:15.978Z,30.34
2019-06-01T12:51:16.014Z,30.27
2019-06-01T12:52:16.065Z,29.98
2019-06-01T12:53:16.123Z,29.87